sensor_id;sensor_type;location;lat;lon;timestamp;P1;durP1;ratioP1;P2;durP2;ratioP2
64560;SDS011;50960;46.838;16.838;2022-11-25T04:02:32;15.65;;;12.25;;
64560;SDS011;50960;46.838;16.838;2022-11-25T04:04:59;12.35;;;11.15;;
64560;SDS011;50960;46.838;16.838;2022-11-25T04:07:25;15.30;;;11.75;;
64560;SDS011;50960;46.838;16.838;2022-11-25T04:09:51;13.20;;;11.85;;
64560;SDS011;50960;46.838;16.838;2022-11-25T04:12:17;13.68;;;11.15;;
64560;SDS011;50960;46.838;16.838;2022-11-25T04:15:02;24.65;;;11.93;;
64560;SDS011;50960;46.838;16.838;2022-11-25T04:17:29;15.35;;;10.73;;
64560;SDS011;50960;46.838;16.838;2022-11-25T04:19:55;14.95;;;10.55;;
64560;SDS011;50960;46.838;16.838;2022-11-25T04:22:21;23.40;;;10.27;;
64560;SDS011;50960;46.838;16.838;2022-11-25T04:24:47;11.25;;;10.25;;
64560;SDS011;50960;46.838;16.838;2022-11-25T04:27:14;21.75;;;10.45;;
64560;SDS011;50960;46.838;16.838;2022-11-25T04:29:40;17.15;;;13.88;;
64560;SDS011;50960;46.838;16.838;2022-11-25T04:32:06;26.55;;;12.52;;
64560;SDS011;50960;46.838;16.838;2022-11-25T04:34:32;14.75;;;11.40;;
64560;SDS011;50960;46.838;16.838;2022-11-25T04:36:58;13.88;;;10.93;;
64560;SDS011;50960;46.838;16.838;2022-11-25T04:39:25;15.13;;;10.68;;
64560;SDS011;50960;46.838;16.838;2022-11-25T04:41:51;11.07;;;10.07;;
64560;SDS011;50960;46.838;16.838;2022-11-25T04:44:37;11.93;;;10.80;;
64560;SDS011;50960;46.838;16.838;2022-11-25T04:47:03;19.25;;;11.13;;
64560;SDS011;50960;46.838;16.838;2022-11-25T04:49:29;24.80;;;12.32;;
64560;SDS011;50960;46.838;16.838;2022-11-25T04:51:56;13.52;;;12.25;;
64560;SDS011;50960;46.838;16.838;2022-11-25T04:54:22;14.52;;;13.07;;
64560;SDS011;50960;46.838;16.838;2022-11-25T04:56:48;13.88;;;12.60;;
64560;SDS011;50960;46.838;16.838;2022-11-25T04:59:14;15.77;;;12.52;;
64560;SDS011;50960;46.838;16.838;2022-11-25T05:01:59;13.73;;;12.50;;
64560;SDS011;50960;46.838;16.838;2022-11-25T05:04:26;27.27;;;14.52;;
64560;SDS011;50960;46.838;16.838;2022-11-25T05:06:52;20.30;;;15.40;;
64560;SDS011;50960;46.838;16.838;2022-11-25T05:09:18;22.30;;;12.82;;
64560;SDS011;50960;46.838;16.838;2022-11-25T05:11:45;12.70;;;11.70;;
64560;SDS011;50960;46.838;16.838;2022-11-25T05:14:12;20.83;;;12.80;;
64560;SDS011;50960;46.838;16.838;2022-11-25T05:16:38;13.45;;;12.18;;
64560;SDS011;50960;46.838;16.838;2022-11-25T05:19:05;20.52;;;12.77;;
64560;SDS011;50960;46.838;16.838;2022-11-25T05:21:31;17.63;;;12.98;;
64560;SDS011;50960;46.838;16.838;2022-11-25T05:23:57;19.88;;;13.95;;
64560;SDS011;50960;46.838;16.838;2022-11-25T05:26:23;14.88;;;13.30;;
64560;SDS011;50960;46.838;16.838;2022-11-25T05:28:50;16.40;;;14.02;;
64560;SDS011;50960;46.838;16.838;2022-11-25T05:31:16;15.07;;;13.52;;
64560;SDS011;50960;46.838;16.838;2022-11-25T05:33:42;15.07;;;13.68;;
64560;SDS011;50960;46.838;16.838;2022-11-25T05:36:08;14.00;;;12.57;;
64560;SDS011;50960;46.838;16.838;2022-11-25T05:38:35;13.65;;;12.50;;
64560;SDS011;50960;46.838;16.838;2022-11-25T05:41:03;15.55;;;12.80;;
64560;SDS011;50960;46.838;16.838;2022-11-25T05:43:31;13.93;;;12.63;;
64560;SDS011;50960;46.838;16.838;2022-11-25T05:45:57;14.88;;;13.40;;
64560;SDS011;50960;46.838;16.838;2022-11-25T05:48:24;15.70;;;14.07;;
64560;SDS011;50960;46.838;16.838;2022-11-25T05:50:50;15.00;;;13.70;;
64560;SDS011;50960;46.838;16.838;2022-11-25T05:53:16;15.98;;;14.55;;
64560;SDS011;50960;46.838;16.838;2022-11-25T05:55:43;16.88;;;15.25;;
64560;SDS011;50960;46.838;16.838;2022-11-25T05:58:09;15.77;;;14.18;;
64560;SDS011;50960;46.838;16.838;2022-11-25T06:00:35;15.48;;;14.00;;
64560;SDS011;50960;46.838;16.838;2022-11-25T06:03:01;15.02;;;13.73;;
64560;SDS011;50960;46.838;16.838;2022-11-25T06:05:27;14.00;;;12.80;;
64560;SDS011;50960;46.838;16.838;2022-11-25T06:07:54;14.77;;;13.48;;
64560;SDS011;50960;46.838;16.838;2022-11-25T13:32:37;3.30;;;2.88;;
64560;SDS011;50960;46.838;16.838;2022-11-25T13:37:46;3.72;;;3.42;;
64560;SDS011;50960;46.838;16.838;2022-11-25T13:42:54;3.30;;;3.03;;
64560;SDS011;50960;46.838;16.838;2022-11-25T13:47:54;4.32;;;3.55;;
64560;SDS011;50960;46.838;16.838;2022-11-25T13:50:28;3.50;;;3.20;;
64560;SDS011;50960;46.838;16.838;2022-11-25T13:53:05;4.00;;;3.60;;
64560;SDS011;50960;46.838;16.838;2022-11-25T13:55:42;4.13;;;3.63;;
64560;SDS011;50960;46.838;16.838;2022-11-25T14:06:05;4.32;;;3.83;;
64560;SDS011;50960;46.838;16.838;2022-11-25T14:25:45;5.47;;;4.90;;
64560;SDS011;50960;46.838;16.838;2022-11-25T14:28:32;5.60;;;4.72;;
64560;SDS011;50960;46.838;16.838;2022-11-25T14:31:11;5.28;;;4.78;;
64560;SDS011;50960;46.838;16.838;2022-11-25T14:33:47;6.07;;;5.50;;
64560;SDS011;50960;46.838;16.838;2022-11-25T14:36:23;5.63;;;4.75;;
64560;SDS011;50960;46.838;16.838;2022-11-25T14:39:01;5.88;;;5.15;;
64560;SDS011;50960;46.838;16.838;2022-11-25T14:44:49;8.75;;;5.90;;
64560;SDS011;50960;46.838;16.838;2022-11-25T14:47:20;8.35;;;7.55;;
64560;SDS011;50960;46.838;16.838;2022-11-25T14:49:53;6.05;;;5.53;;
64560;SDS011;50960;46.838;16.838;2022-11-25T14:52:25;7.07;;;6.20;;
64560;SDS011;50960;46.838;16.838;2022-11-25T14:54:57;10.63;;;9.18;;
64560;SDS011;50960;46.838;16.838;2022-11-25T14:57:25;9.70;;;8.13;;
64560;SDS011;50960;46.838;16.838;2022-11-25T14:59:55;11.32;;;7.70;;
64560;SDS011;50960;46.838;16.838;2022-11-25T15:02:30;12.30;;;9.25;;
64560;SDS011;50960;46.838;16.838;2022-11-25T15:05:19;10.75;;;8.15;;
64560;SDS011;50960;46.838;16.838;2022-11-25T15:07:57;9.82;;;7.97;;
64560;SDS011;50960;46.838;16.838;2022-11-25T15:12:59;18.38;;;10.10;;
64560;SDS011;50960;46.838;16.838;2022-11-25T15:15:32;22.77;;;11.45;;
64560;SDS011;50960;46.838;16.838;2022-11-25T15:17:58;23.08;;;12.40;;
64560;SDS011;50960;46.838;16.838;2022-11-25T15:20:30;25.73;;;15.73;;
64560;SDS011;50960;46.838;16.838;2022-11-25T15:22:59;23.02;;;13.27;;
64560;SDS011;50960;46.838;16.838;2022-11-25T15:25:25;18.75;;;13.68;;
64560;SDS011;50960;46.838;16.838;2022-11-25T15:27:52;20.67;;;13.57;;
64560;SDS011;50960;46.838;16.838;2022-11-25T15:30:19;20.58;;;12.88;;
64560;SDS011;50960;46.838;16.838;2022-11-25T15:32:50;20.48;;;12.80;;
64560;SDS011;50960;46.838;16.838;2022-11-25T15:35:18;19.85;;;12.25;;
64560;SDS011;50960;46.838;16.838;2022-11-25T15:37:47;19.88;;;12.15;;
64560;SDS011;50960;46.838;16.838;2022-11-25T15:40:30;21.13;;;12.43;;
64560;SDS011;50960;46.838;16.838;2022-11-25T15:43:00;21.77;;;13.63;;
64560;SDS011;50960;46.838;16.838;2022-11-25T15:45:36;23.98;;;12.95;;
64560;SDS011;50960;46.838;16.838;2022-11-25T15:48:23;22.50;;;15.00;;
64560;SDS011;50960;46.838;16.838;2022-11-25T15:51:16;24.83;;;15.25;;
64560;SDS011;50960;46.838;16.838;2022-11-25T15:54:00;23.60;;;15.02;;
64560;SDS011;50960;46.838;16.838;2022-11-25T15:56:27;27.27;;;14.82;;
64560;SDS011;50960;46.838;16.838;2022-11-25T15:58:56;28.33;;;16.10;;
64560;SDS011;50960;46.838;16.838;2022-11-25T16:01:23;28.60;;;16.38;;
64560;SDS011;50960;46.838;16.838;2022-11-25T16:03:51;23.20;;;15.20;;
64560;SDS011;50960;46.838;16.838;2022-11-25T16:06:33;24.83;;;15.40;;
64560;SDS011;50960;46.838;16.838;2022-11-25T16:08:59;18.63;;;13.80;;
64560;SDS011;50960;46.838;16.838;2022-11-25T16:11:28;22.60;;;13.65;;
64560;SDS011;50960;46.838;16.838;2022-11-25T16:17:03;20.50;;;13.48;;
64560;SDS011;50960;46.838;16.838;2022-11-25T16:19:38;21.95;;;13.55;;
64560;SDS011;50960;46.838;16.838;2022-11-25T16:22:15;17.58;;;12.60;;
64560;SDS011;50960;46.838;16.838;2022-11-25T16:24:48;21.20;;;12.63;;
64560;SDS011;50960;46.838;16.838;2022-11-25T16:27:17;15.98;;;11.68;;
64560;SDS011;50960;46.838;16.838;2022-11-25T16:32:21;22.05;;;13.50;;
64560;SDS011;50960;46.838;16.838;2022-11-25T16:34:56;22.92;;;14.68;;
64560;SDS011;50960;46.838;16.838;2022-11-25T16:37:36;21.92;;;14.85;;
64560;SDS011;50960;46.838;16.838;2022-11-25T16:40:02;22.33;;;15.02;;
64560;SDS011;50960;46.838;16.838;2022-11-25T16:42:28;25.50;;;13.38;;
64560;SDS011;50960;46.838;16.838;2022-11-25T16:44:55;22.58;;;15.02;;
64560;SDS011;50960;46.838;16.838;2022-11-25T16:47:21;20.98;;;14.48;;
64560;SDS011;50960;46.838;16.838;2022-11-25T16:49:48;23.13;;;14.68;;
64560;SDS011;50960;46.838;16.838;2022-11-25T16:52:14;22.25;;;14.27;;
64560;SDS011;50960;46.838;16.838;2022-11-25T16:54:40;27.75;;;19.73;;
64560;SDS011;50960;46.838;16.838;2022-11-25T16:57:09;22.67;;;17.02;;
64560;SDS011;50960;46.838;16.838;2022-11-25T16:59:41;30.60;;;18.17;;
64560;SDS011;50960;46.838;16.838;2022-11-25T17:02:28;29.52;;;20.58;;
64560;SDS011;50960;46.838;16.838;2022-11-25T17:04:54;33.85;;;23.00;;
64560;SDS011;50960;46.838;16.838;2022-11-25T17:07:21;43.15;;;28.67;;
64560;SDS011;50960;46.838;16.838;2022-11-25T17:09:47;38.75;;;26.05;;
64560;SDS011;50960;46.838;16.838;2022-11-25T17:12:17;38.88;;;23.20;;
64560;SDS011;50960;46.838;16.838;2022-11-25T17:14:49;38.75;;;23.88;;
64560;SDS011;50960;46.838;16.838;2022-11-25T17:17:19;37.30;;;25.67;;
64560;SDS011;50960;46.838;16.838;2022-11-25T17:19:47;36.00;;;23.55;;
64560;SDS011;50960;46.838;16.838;2022-11-25T17:22:15;29.88;;;23.88;;
64560;SDS011;50960;46.838;16.838;2022-11-25T17:24:44;32.60;;;21.65;;
64560;SDS011;50960;46.838;16.838;2022-11-25T17:27:14;30.60;;;21.65;;
64560;SDS011;50960;46.838;16.838;2022-11-25T17:29:51;29.00;;;19.45;;
64560;SDS011;50960;46.838;16.838;2022-11-25T17:32:18;26.02;;;19.33;;
64560;SDS011;50960;46.838;16.838;2022-11-25T17:34:45;20.60;;;17.15;;
64560;SDS011;50960;46.838;16.838;2022-11-25T17:37:15;29.95;;;18.73;;
64560;SDS011;50960;46.838;16.838;2022-11-25T17:39:42;25.20;;;17.38;;
64560;SDS011;50960;46.838;16.838;2022-11-25T17:42:11;24.23;;;17.75;;
64560;SDS011;50960;46.838;16.838;2022-11-25T17:44:40;19.20;;;16.60;;
64560;SDS011;50960;46.838;16.838;2022-11-25T17:47:11;17.95;;;15.27;;
64560;SDS011;50960;46.838;16.838;2022-11-25T17:49:39;21.77;;;15.77;;
64560;SDS011;50960;46.838;16.838;2022-11-25T17:52:06;17.52;;;15.30;;
64560;SDS011;50960;46.838;16.838;2022-11-25T17:54:32;16.80;;;14.93;;
64560;SDS011;50960;46.838;16.838;2022-11-25T17:56:59;16.92;;;14.98;;
64560;SDS011;50960;46.838;16.838;2022-11-25T17:59:27;22.80;;;17.25;;
64560;SDS011;50960;46.838;16.838;2022-11-25T18:01:55;19.20;;;15.82;;
64560;SDS011;50960;46.838;16.838;2022-11-25T18:04:30;21.08;;;16.70;;
64560;SDS011;50960;46.838;16.838;2022-11-25T18:07:00;18.67;;;14.52;;
64560;SDS011;50960;46.838;16.838;2022-11-25T18:09:26;18.35;;;13.98;;
64560;SDS011;50960;46.838;16.838;2022-11-25T18:11:53;19.80;;;16.52;;
64560;SDS011;50960;46.838;16.838;2022-11-25T18:14:24;20.20;;;14.75;;
64560;SDS011;50960;46.838;16.838;2022-11-25T18:17:01;23.45;;;14.95;;
64560;SDS011;50960;46.838;16.838;2022-11-25T18:19:30;36.55;;;27.88;;
64560;SDS011;50960;46.838;16.838;2022-11-25T18:21:58;39.33;;;34.25;;
64560;SDS011;50960;46.838;16.838;2022-11-25T18:26:56;27.20;;;22.33;;
64560;SDS011;50960;46.838;16.838;2022-11-25T18:29:23;36.25;;;28.60;;
64560;SDS011;50960;46.838;16.838;2022-11-25T18:31:53;31.98;;;25.25;;
64560;SDS011;50960;46.838;16.838;2022-11-25T18:34:21;35.30;;;28.17;;
64560;SDS011;50960;46.838;16.838;2022-11-25T18:36:49;33.13;;;26.85;;
64560;SDS011;50960;46.838;16.838;2022-11-25T18:39:15;32.95;;;26.80;;
64560;SDS011;50960;46.838;16.838;2022-11-25T18:41:43;32.78;;;29.10;;
64560;SDS011;50960;46.838;16.838;2022-11-25T18:44:18;39.92;;;31.85;;
64560;SDS011;50960;46.838;16.838;2022-11-25T18:46:48;42.50;;;33.08;;
64560;SDS011;50960;46.838;16.838;2022-11-25T18:49:14;42.50;;;34.58;;
64560;SDS011;50960;46.838;16.838;2022-11-25T18:51:41;43.13;;;35.22;;
64560;SDS011;50960;46.838;16.838;2022-11-25T18:54:07;41.55;;;36.22;;
64560;SDS011;50960;46.838;16.838;2022-11-25T18:56:35;44.67;;;36.78;;
64560;SDS011;50960;46.838;16.838;2022-11-25T18:59:02;44.25;;;35.90;;
64560;SDS011;50960;46.838;16.838;2022-11-25T19:01:30;42.20;;;35.40;;
64560;SDS011;50960;46.838;16.838;2022-11-25T19:03:57;45.40;;;36.03;;
64560;SDS011;50960;46.838;16.838;2022-11-25T19:06:24;41.88;;;35.00;;
64560;SDS011;50960;46.838;16.838;2022-11-25T19:08:54;45.95;;;38.25;;
64560;SDS011;50960;46.838;16.838;2022-11-25T19:11:31;48.60;;;38.88;;
64560;SDS011;50960;46.838;16.838;2022-11-25T19:14:02;44.08;;;37.05;;
64560;SDS011;50960;46.838;16.838;2022-11-25T19:18:59;46.65;;;38.38;;
64560;SDS011;50960;46.838;16.838;2022-11-25T19:21:27;43.42;;;36.70;;
64560;SDS011;50960;46.838;16.838;2022-11-25T19:23:55;48.25;;;37.35;;
64560;SDS011;50960;46.838;16.838;2022-11-25T19:26:26;51.53;;;41.35;;
64560;SDS011;50960;46.838;16.838;2022-11-25T19:28:59;52.67;;;42.35;;
64560;SDS011;50960;46.838;16.838;2022-11-25T19:31:29;51.50;;;41.17;;
64560;SDS011;50960;46.838;16.838;2022-11-25T19:33:57;40.72;;;36.33;;
64560;SDS011;50960;46.838;16.838;2022-11-25T19:36:25;41.83;;;35.08;;
64560;SDS011;50960;46.838;16.838;2022-11-25T19:38:55;42.20;;;35.85;;
64560;SDS011;50960;46.838;16.838;2022-11-25T19:41:22;45.50;;;35.85;;
64560;SDS011;50960;46.838;16.838;2022-11-25T19:43:49;48.42;;;36.40;;
64560;SDS011;50960;46.838;16.838;2022-11-25T19:46:26;53.22;;;45.70;;
64560;SDS011;50960;46.838;16.838;2022-11-25T19:48:55;43.17;;;33.20;;
64560;SDS011;50960;46.838;16.838;2022-11-25T19:51:23;37.95;;;33.10;;
64560;SDS011;50960;46.838;16.838;2022-11-25T19:53:51;38.08;;;32.45;;
64560;SDS011;50960;46.838;16.838;2022-11-25T19:56:18;36.25;;;32.35;;
64560;SDS011;50960;46.838;16.838;2022-11-25T19:58:55;39.25;;;34.95;;
64560;SDS011;50960;46.838;16.838;2022-11-25T20:01:23;46.55;;;39.17;;
64560;SDS011;50960;46.838;16.838;2022-11-25T20:03:56;45.03;;;38.90;;
64560;SDS011;50960;46.838;16.838;2022-11-25T20:06:23;44.85;;;38.35;;
64560;SDS011;50960;46.838;16.838;2022-11-25T20:08:50;43.88;;;38.92;;
64560;SDS011;50960;46.838;16.838;2022-11-25T20:11:17;41.80;;;36.92;;
64560;SDS011;50960;46.838;16.838;2022-11-25T20:13:44;43.75;;;35.53;;
64560;SDS011;50960;46.838;16.838;2022-11-25T20:16:14;40.38;;;33.63;;
64560;SDS011;50960;46.838;16.838;2022-11-25T20:18:42;38.80;;;34.60;;
64560;SDS011;50960;46.838;16.838;2022-11-25T20:21:13;42.83;;;34.83;;
64560;SDS011;50960;46.838;16.838;2022-11-25T20:24:01;40.10;;;35.80;;
64560;SDS011;50960;46.838;16.838;2022-11-25T20:26:32;42.80;;;36.45;;
64560;SDS011;50960;46.838;16.838;2022-11-25T20:29:15;40.85;;;35.80;;
64560;SDS011;50960;46.838;16.838;2022-11-25T20:31:43;43.47;;;35.83;;
64560;SDS011;50960;46.838;16.838;2022-11-25T20:34:09;41.53;;;36.20;;
64560;SDS011;50960;46.838;16.838;2022-11-25T20:36:36;45.28;;;37.92;;
64560;SDS011;50960;46.838;16.838;2022-11-25T20:39:06;42.60;;;38.00;;
64560;SDS011;50960;46.838;16.838;2022-11-25T20:41:41;44.65;;;38.17;;
64560;SDS011;50960;46.838;16.838;2022-11-25T20:44:08;40.30;;;35.80;;
64560;SDS011;50960;46.838;16.838;2022-11-25T20:46:37;43.30;;;36.60;;
64560;SDS011;50960;46.838;16.838;2022-11-25T20:49:12;41.05;;;35.67;;
64560;SDS011;50960;46.838;16.838;2022-11-25T20:51:46;39.67;;;35.38;;
64560;SDS011;50960;46.838;16.838;2022-11-25T20:54:12;45.20;;;37.53;;
64560;SDS011;50960;46.838;16.838;2022-11-25T20:56:39;44.38;;;37.20;;
64560;SDS011;50960;46.838;16.838;2022-11-25T20:59:19;40.65;;;36.03;;
64560;SDS011;50960;46.838;16.838;2022-11-25T21:01:48;38.80;;;33.88;;
64560;SDS011;50960;46.838;16.838;2022-11-25T21:04:14;39.08;;;33.10;;
64560;SDS011;50960;46.838;16.838;2022-11-25T21:06:41;39.80;;;32.30;;
64560;SDS011;50960;46.838;16.838;2022-11-25T21:09:09;36.78;;;32.13;;
64560;SDS011;50960;46.838;16.838;2022-11-25T21:11:44;38.10;;;31.23;;
64560;SDS011;50960;46.838;16.838;2022-11-25T21:14:11;38.85;;;32.90;;
64560;SDS011;50960;46.838;16.838;2022-11-25T21:16:39;40.40;;;32.03;;
64560;SDS011;50960;46.838;16.838;2022-11-25T21:19:06;38.13;;;32.88;;
64560;SDS011;50960;46.838;16.838;2022-11-25T21:21:33;37.50;;;32.38;;
64560;SDS011;50960;46.838;16.838;2022-11-25T21:24:02;39.17;;;31.17;;
64560;SDS011;50960;46.838;16.838;2022-11-25T21:26:34;35.20;;;29.58;;
64560;SDS011;50960;46.838;16.838;2022-11-25T21:29:01;38.10;;;29.63;;
64560;SDS011;50960;46.838;16.838;2022-11-25T21:31:27;36.90;;;27.92;;
64560;SDS011;50960;46.838;16.838;2022-11-25T21:33:55;47.85;;;37.95;;
64560;SDS011;50960;46.838;16.838;2022-11-25T21:36:27;41.55;;;32.72;;
64560;SDS011;50960;46.838;16.838;2022-11-25T21:39:02;37.88;;;31.58;;
64560;SDS011;50960;46.838;16.838;2022-11-25T21:41:31;38.05;;;33.28;;
64560;SDS011;50960;46.838;16.838;2022-11-25T21:43:58;40.53;;;33.30;;
64560;SDS011;50960;46.838;16.838;2022-11-25T21:46:25;42.63;;;33.88;;
64560;SDS011;50960;46.838;16.838;2022-11-25T21:48:53;36.85;;;32.85;;
64560;SDS011;50960;46.838;16.838;2022-11-25T21:51:19;42.53;;;33.85;;
64560;SDS011;50960;46.838;16.838;2022-11-25T21:53:52;41.58;;;35.58;;
64560;SDS011;50960;46.838;16.838;2022-11-25T21:56:22;44.75;;;38.35;;
64560;SDS011;50960;46.838;16.838;2022-11-25T21:58:51;56.13;;;44.80;;
64560;SDS011;50960;46.838;16.838;2022-11-25T22:01:18;45.00;;;38.40;;
64560;SDS011;50960;46.838;16.838;2022-11-25T22:03:45;44.25;;;38.00;;
64560;SDS011;50960;46.838;16.838;2022-11-25T22:06:18;43.20;;;37.20;;
